Time;durP1;ratioP1;P1;durP2;ratioP2;P2;SDS_P1;SDS_P2;PMS_P1;PMS_P2;Temp;Humidity;BMP_temperature;BMP_pressure;BME280_temperature;BME280_humidity;BME280_pressure;Samples;Min_cycle;Max_cycle;Signal;HPM_P1;HPM_P2
2023/07/18 00:01:04;;;;;;;5.63;2.10;;;;;;;21.95;48.66;100459.13;5942512;23;20027;-83
2023/07/18 00:04:09;;;;;;;5.45;2.33;;;;;;;21.81;49.16;100476.28;5976304;23;21592;-83
2023/07/18 00:07:04;;;;;;;4.35;2.03;;;;;;;21.87;48.76;100460.09;5938206;23;20434;-83
2023/07/18 00:09:59;;;;;;;5.05;2.13;;;;;;;21.90;49.06;100475.09;5931492;23;20462;-83
2023/07/18 00:12:32;;;;;;;2.80;2.10;;;;;;;21.86;49.00;100461.16;6017482;23;20026;-83
2023/07/18 00:15:02;;;;;;;3.67;1.90;;;;;;;21.88;49.08;100469.06;6030659;23;20031;-83
2023/07/18 00:21:17;;;;;;;4.47;2.35;;;;;;;21.78;48.52;100476.63;6019866;23;19924;-83
2023/07/18 00:23:47;;;;;;;6.00;2.22;;;;;;;21.80;48.47;100466.47;6022727;23;20465;-83
2023/07/18 00:26:23;;;;;;;5.63;2.17;;;;;;;21.79;48.57;100473.75;5981045;23;20556;-84
2023/07/18 00:29:21;;;;;;;4.65;2.10;;;;;;;21.77;48.43;100474.97;5961300;23;20618;-83
2023/07/18 00:31:59;;;;;;;3.70;2.00;;;;;;;21.76;49.01;100474.16;5912174;23;20037;-83
2023/07/18 00:34:29;;;;;;;6.45;2.47;;;;;;;21.77;48.82;100473.09;6012625;23;20018;-83
2023/07/18 00:36:56;;;;;;;5.03;2.22;;;;;;;21.73;49.03;100471.84;6003988;23;20462;-83
2023/07/18 00:39:24;;;;;;;5.88;2.20;;;;;;;21.75;49.06;100483.28;5980757;23;20022;-83
2023/07/18 00:41:54;;;;;;;6.28;2.90;;;;;;;21.68;49.19;100477.00;6006448;23;20029;-83
2023/07/18 00:44:30;;;;;;;4.15;2.05;;;;;;;21.61;48.90;100476.06;5960192;23;20022;-84
2023/07/18 00:47:01;;;;;;;5.68;2.50;;;;;;;21.67;48.89;100488.81;6005431;23;20022;-83
2023/07/18 00:49:31;;;;;;;6.65;2.50;;;;;;;21.64;49.24;100479.22;6051671;23;20026;-83
2023/07/18 00:52:00;;;;;;;8.23;2.53;;;;;;;21.61;49.29;100492.28;6027154;23;20048;-83
2023/07/18 00:54:30;;;;;;;8.52;2.45;;;;;;;21.56;48.91;100483.94;5965834;23;20453;-83
2023/07/18 00:57:02;;;;;;;5.32;2.00;;;;;;;21.57;48.62;100485.59;5964552;23;20335;-83
2023/07/18 00:59:35;;;;;;;5.18;2.30;;;;;;;21.58;49.12;100482.69;6000031;23;20030;-83
2023/07/18 01:02:09;;;;;;;7.90;2.40;;;;;;;21.57;49.18;100481.00;6027339;23;20470;-84
2023/07/18 01:04:36;;;;;;;6.15;2.30;;;;;;;21.49;49.67;100478.44;5977768;23;20026;-83
2023/07/18 01:07:09;;;;;;;;;;;;;;;21.21;50.94;100486.41;6006683;23;20825;-83
2023/07/18 01:09:43;;;;;;;6.28;2.22;;;;;;;21.39;50.18;100478.75;5950287;23;20238;-83
2023/07/18 01:12:12;;;;;;;4.47;2.30;;;;;;;21.36;49.98;100486.38;5973631;23;20034;-83
2023/07/18 01:14:42;;;;;;;6.13;2.67;;;;;;;21.36;50.12;100484.50;5982843;23;20529;-83
2023/07/18 01:17:13;;;;;;;3.60;2.30;;;;;;;21.35;50.13;100479.31;5979137;23;20029;-83
2023/07/18 01:19:46;;;;;;;5.18;2.13;;;;;;;21.30;50.17;100474.47;5967669;23;20072;-83
2023/07/18 01:22:19;;;;;;;4.43;2.50;;;;;;;21.27;50.34;100474.84;6013274;23;20097;-83
2023/07/18 01:24:51;;;;;;;3.10;1.85;;;;;;;21.31;50.30;100467.19;6029580;23;20041;-83
2023/07/18 01:27:21;;;;;;;7.70;2.43;;;;;;;21.25;50.42;100474.19;6016904;23;20045;-83
2023/07/18 01:29:49;;;;;;;7.85;2.50;;;;;;;21.26;50.50;100473.16;6027194;23;20446;-83
2023/07/18 01:32:16;;;;;;;5.72;2.20;;;;;;;21.20;50.63;100471.22;6025327;23;20045;-83
2023/07/18 01:34:45;;;;;;;3.60;1.90;;;;;;;21.20;50.75;100472.06;6005641;23;20041;-83
2023/07/18 01:37:15;;;;;;;5.13;2.28;;;;;;;21.16;50.84;100475.31;5982507;23;20026;-83
2023/07/18 01:39:43;;;;;;;4.57;2.95;;;;;;;21.11;50.90;100469.66;6025062;23;20033;-83
2023/07/18 01:42:17;;;;;;;6.75;2.60;;;;;;;21.11;50.94;100466.94;6026803;23;20082;-83
2023/07/18 01:44:50;;;;;;;5.78;2.28;;;;;;;21.05;51.10;100468.56;5999068;23;20022;-83
2023/07/18 01:47:19;;;;;;;5.18;2.00;;;;;;;21.02;51.27;100471.63;6001451;23;20026;-83
2023/07/18 01:49:50;;;;;;;4.32;1.80;;;;;;;20.98;51.29;100463.06;6026493;23;20037;-83
2023/07/18 01:52:21;;;;;;;3.88;2.17;;;;;;;20.98;51.49;100459.53;6027432;23;20112;-83
2023/07/18 01:54:57;;;;;;;6.40;2.72;;;;;;;20.96;51.60;100464.28;6048539;23;20682;-83
2023/07/18 01:57:29;;;;;;;3.90;2.22;;;;;;;20.98;51.23;100460.34;5969138;23;20023;-83
2023/07/18 02:00:00;;;;;;;4.30;2.28;;;;;;;20.99;51.21;100464.75;5961154;23;20084;-83
2023/07/18 02:02:45;;;;;;;5.85;2.75;;;;;;;20.92;51.21;100460.28;6029930;23;20026;-83
2023/07/18 02:05:24;;;;;;;4.65;2.20;;;;;;;20.91;51.34;100467.53;6006114;23;20026;-83
2023/07/18 02:07:57;;;;;;;4.25;2.10;;;;;;;20.90;51.13;100471.25;6024177;23;20024;-83
2023/07/18 02:10:30;;;;;;;3.63;2.13;;;;;;;20.84;51.22;100472.03;6005149;23;20029;-83
2023/07/18 02:12:58;;;;;;;5.35;2.50;;;;;;;20.88;51.42;100467.91;6002363;23;20426;-83
2023/07/18 02:15:28;;;;;;;5.40;1.90;;;;;;;20.83;51.21;100472.19;6029049;23;20022;-83
2023/07/18 02:17:56;;;;;;;4.95;1.98;;;;;;;20.77;51.18;100474.63;6048164;23;20057;-83
2023/07/18 02:20:27;;;;;;;4.95;2.30;;;;;;;20.76;51.59;100472.97;6001369;23;20022;-83
2023/07/18 02:23:00;;;;;;;3.85;2.40;;;;;;;20.72;51.67;100468.13;5979402;23;20034;-83
2023/07/18 02:25:28;;;;;;;7.43;2.20;;;;;;;20.71;51.78;100474.53;6003166;23;20483;-83
2023/07/18 02:27:56;;;;;;;6.43;2.58;;;;;;;20.68;51.74;100467.63;6074153;23;20037;-83
2023/07/18 02:30:30;;;;;;;3.88;2.28;;;;;;;20.67;52.04;100473.25;6026872;23;20057;-83
2023/07/18 02:33:04;;;;;;;5.20;2.42;;;;;;;20.62;52.44;100464.88;6006166;23;20478;-83
2023/07/18 02:35:38;;;;;;;4.57;2.30;;;;;;;20.60;52.43;100465.88;6029563;23;21089;-83
2023/07/18 02:38:07;;;;;;;4.88;2.35;;;;;;;20.57;52.17;100458.16;5979661;23;20034;-83
2023/07/18 02:40:35;;;;;;;3.58;2.15;;;;;;;20.55;52.19;100465.59;6003238;23;20060;-83
2023/07/18 02:43:05;;;;;;;5.40;2.20;;;;;;;20.56;52.16;100459.19;5963502;23;20031;-83
2023/07/18 02:45:32;;;;;;;5.00;2.08;;;;;;;20.47;52.14;100457.56;5980489;23;20031;-83
2023/07/18 02:48:02;;;;;;;4.68;2.50;;;;;;;20.48;52.28;100461.09;6025067;23;20452;-83
2023/07/18 02:50:35;;;;;;;5.03;2.50;;;;;;;20.42;52.53;100451.88;6011757;23;20204;-83
2023/07/18 02:53:06;;;;;;;5.15;2.75;;;;;;;20.41;52.96;100462.88;5988357;23;20041;-83
2023/07/18 02:55:35;;;;;;;4.20;2.05;;;;;;;20.42;53.29;100468.06;5987444;23;20022;-83
2023/07/18 02:58:05;;;;;;;2.55;2.03;;;;;;;20.38;53.50;100469.47;6031225;23;20117;-83
2023/07/18 03:00:33;;;;;;;5.88;2.20;;;;;;;20.32;53.23;100457.53;6004405;23;20046;-83
2023/07/18 03:03:00;;;;;;;3.50;1.92;;;;;;;20.32;53.53;100465.63;6002430;23;20053;-83
2023/07/18 03:05:32;;;;;;;3.00;2.50;;;;;;;20.34;53.24;100470.84;5987736;23;20030;-83
2023/07/18 03:07:59;;;;;;;4.03;2.47;;;;;;;20.34;53.21;100465.47;5987029;23;20355;-83
2023/07/18 03:10:27;;;;;;;4.00;2.08;;;;;;;20.32;53.45;100476.41;6026318;23;20211;-83
2023/07/18 03:12:55;;;;;;;5.20;2.28;;;;;;;20.29;53.64;100473.25;6003681;23;24688;-84
2023/07/18 03:15:22;;;;;;;5.78;2.58;;;;;;;20.33;53.45;100471.88;6005098;23;20037;-83
2023/07/18 03:17:49;;;;;;;5.53;2.30;;;;;;;20.29;53.12;100471.41;6002043;23;20109;-83
2023/07/18 03:20:17;;;;;;;2.92;2.35;;;;;;;20.32;52.97;100476.41;6025328;23;20165;-83
2023/07/18 03:22:46;;;;;;;4.20;2.15;;;;;;;20.28;52.90;100475.13;6011247;23;20022;-83
2023/07/18 03:25:14;;;;;;;3.67;2.20;;;;;;;20.31;52.76;100479.31;5984098;23;20048;-83
2023/07/18 03:27:40;;;;;;;3.10;2.15;;;;;;;20.27;52.99;100478.81;6028239;23;20031;-83
2023/07/18 03:30:10;;;;;;;5.22;2.33;;;;;;;20.21;53.14;100476.88;6005566;23;20046;-83
2023/07/18 03:32:41;;;;;;;6.95;2.58;;;;;;;20.21;52.96;100484.13;6029707;23;20033;-83
2023/07/18 03:35:09;;;;;;;5.93;2.15;;;;;;;20.19;52.93;100475.38;5983369;23;20046;-83
2023/07/18 03:37:36;;;;;;;7.70;2.33;;;;;;;20.19;53.00;100481.59;5981878;23;20034;-83
2023/07/18 03:40:06;;;;;;;3.22;1.95;;;;;;;20.16;53.03;100480.13;6001825;23;20029;-83
2023/07/18 03:42:33;;;;;;;5.70;2.30;;;;;;;20.11;53.42;100477.13;6028187;23;20318;-83
2023/07/18 03:45:01;;;;;;;3.28;2.38;;;;;;;20.12;53.32;100484.22;6029694;23;20686;-83
2023/07/18 03:47:28;;;;;;;4.55;2.55;;;;;;;20.07;53.34;100478.50;6029073;23;20109;-83
2023/07/18 03:49:55;;;;;;;4.78;2.42;;;;;;;20.04;53.11;100473.47;6029532;23;20410;-83
2023/07/18 03:52:21;;;;;;;4.65;2.40;;;;;;;20.09;53.24;100484.56;6005765;23;20122;-83
2023/07/18 03:54:48;;;;;;;5.07;2.10;;;;;;;20.11;53.33;100479.81;6051905;23;20394;-83
2023/07/18 03:57:15;;;;;;;4.53;2.53;;;;;;;20.08;53.10;100476.66;6002562;23;20027;-83
2023/07/18 03:59:42;;;;;;;8.65;2.75;;;;;;;20.13;52.69;100476.97;6007178;23;20022;-83
2023/07/18 04:02:08;;;;;;;3.28;2.13;;;;;;;20.12;52.48;100480.66;6052566;23;20042;-83
2023/07/18 04:04:36;;;;;;;4.57;2.38;;;;;;;20.11;52.49;100465.50;6004252;23;20037;-83
2023/07/18 04:07:03;;;;;;;3.42;2.55;;;;;;;20.13;52.77;100472.41;6003024;23;20041;-83
2023/07/18 04:09:30;;;;;;;6.18;2.42;;;;;;;20.22;52.25;100472.31;6023023;23;20026;-82
2023/07/18 04:11:58;;;;;;;5.25;2.53;;;;;;;20.21;52.13;100470.66;6025574;23;20026;-83
2023/07/18 04:14:25;;;;;;;4.88;2.60;;;;;;;20.19;52.47;100473.50;6026628;23;20213;-83
2023/07/18 04:16:53;;;;;;;3.95;2.33;;;;;;;20.16;52.67;100466.63;6004715;23;20427;-83
2023/07/18 04:19:20;;;;;;;4.60;2.65;;;;;;;20.30;52.60;100461.44;6027787;23;20041;-83
2023/07/18 04:21:46;;;;;;;4.97;2.40;;;;;;;20.43;52.47;100472.47;6030565;23;20085;-83
2023/07/18 04:24:13;;;;;;;4.65;2.33;;;;;;;20.42;52.37;100468.06;6004643;23;20122;-83
2023/07/18 04:26:41;;;;;;;8.30;2.60;;;;;;;20.32;51.77;100462.09;6003051;23;20354;-83
2023/07/18 04:29:08;;;;;;;5.18;2.58;;;;;;;20.31;52.40;100469.34;5982167;23;20478;-83
2023/07/18 04:31:34;;;;;;;6.22;2.70;;;;;;;20.25;51.96;100459.31;6026613;23;20031;-83
2023/07/18 04:34:01;;;;;;;6.03;3.08;;;;;;;20.20;52.17;100471.66;6008673;23;20030;-83
2023/07/18 04:36:28;;;;;;;3.67;2.50;;;;;;;20.21;52.24;100468.78;6006343;23;20018;-83
2023/07/18 04:38:55;;;;;;;9.88;3.03;;;;;;;20.24;52.27;100462.19;6005869;23;20026;-83
2023/07/18 04:41:22;;;;;;;5.53;3.10;;;;;;;20.26;52.42;100462.84;6053708;23;20027;-83
2023/07/18 04:43:49;;;;;;;8.18;3.08;;;;;;;20.26;52.40;100460.16;6053905;23;20026;-83
2023/07/18 04:46:16;;;;;;;7.30;3.30;;;;;;;20.27;52.42;100461.81;6006446;23;20033;-83
2023/07/18 04:48:43;;;;;;;6.32;2.70;;;;;;;20.42;52.64;100459.13;6052624;23;20030;-83
2023/07/18 04:51:10;;;;;;;6.28;2.78;;;;;;;20.49;52.42;100450.13;6027240;23;20030;-83
2023/07/18 04:53:37;;;;;;;6.78;2.70;;;;;;;20.46;52.39;100445.09;6027347;23;20045;-83
2023/07/18 04:56:06;;;;;;;9.50;3.17;;;;;;;20.44;52.53;100449.00;5981583;23;20076;-83
2023/07/18 04:58:33;;;;;;;8.98;3.22;;;;;;;20.45;52.65;100451.50;6002520;23;20033;-83
2023/07/18 05:01:02;;;;;;;8.77;3.20;;;;;;;20.48;52.35;100447.59;6003065;23;20731;-83
2023/07/18 05:03:29;;;;;;;8.32;3.17;;;;;;;20.48;52.12;100445.75;6022389;23;20030;-84
2023/07/18 05:06:13;;;;;;;14.90;3.65;;;;;;;20.56;52.18;100439.47;6029841;23;20026;-84
2023/07/18 05:08:40;;;;;;;6.13;3.40;;;;;;;20.53;52.11;100445.19;5979363;23;20027;-84
2023/07/18 05:11:07;;;;;;;9.95;3.20;;;;;;;20.54;52.32;100452.28;6022650;23;20601;-84
2023/07/18 05:13:35;;;;;;;8.70;3.22;;;;;;;20.53;52.37;100445.19;5963628;23;20032;-84
2023/07/18 05:16:04;;;;;;;7.43;3.28;;;;;;;20.54;52.57;100441.47;5960867;23;20050;-84
2023/07/18 05:18:31;;;;;;;5.30;2.88;;;;;;;20.55;52.50;100441.31;6005085;23;20029;-84
2023/07/18 05:20:59;;;;;;;6.75;3.28;;;;;;;20.56;52.36;100440.31;6028709;23;20026;-84
2023/07/18 05:23:28;;;;;;;7.88;2.95;;;;;;;20.61;52.43;100442.44;6050550;23;20494;-84
2023/07/18 05:26:07;;;;;;;11.25;3.00;;;;;;;20.59;52.15;100436.38;5943271;23;20022;-84
2023/07/18 05:28:38;;;;;;;6.28;3.42;;;;;;;20.61;52.00;100439.75;6004509;23;20081;-84
2023/07/18 05:31:07;;;;;;;6.28;3.55;;;;;;;20.62;52.24;100435.19;5979099;23;20034;-84
2023/07/18 05:33:36;;;;;;;8.77;3.13;;;;;;;20.64;52.02;100441.22;6023077;23;20101;-84
2023/07/18 05:36:04;;;;;;;7.20;3.13;;;;;;;20.63;52.09;100434.97;6001292;23;20030;-84
2023/07/18 05:38:32;;;;;;;9.52;3.67;;;;;;;20.70;52.19;100435.06;6010567;23;20038;-85
2023/07/18 05:41:03;;;;;;;8.25;3.35;;;;;;;20.68;52.27;100427.16;6030747;23;20109;-84
2023/07/18 05:43:32;;;;;;;6.50;3.13;;;;;;;20.77;52.07;100420.66;5996445;23;20489;-84
2023/07/18 05:45:59;;;;;;;11.02;3.47;;;;;;;20.68;52.23;100427.16;6042333;23;20030;-84
2023/07/18 05:49:14;;;;;;;12.73;3.35;;;;;;;20.61;52.62;100423.56;6057970;23;20031;-82
2023/07/18 05:52:14;;;;;;;6.47;3.25;;;;;;;20.63;52.42;100424.19;5998704;23;20074;-82
2023/07/18 05:54:52;;;;;;;5.32;3.05;;;;;;;20.70;52.53;100416.19;6013138;23;20056;-82
2023/07/18 05:57:32;;;;;;;5.95;3.10;;;;;;;20.69;52.07;100403.72;6059029;23;20349;-82
2023/07/18 06:00:15;;;;;;;8.82;3.78;;;;;;;20.77;52.36;100403.63;5993002;23;20027;-82
2023/07/18 06:02:48;;;;;;;7.88;3.20;;;;;;;20.80;52.05;100403.25;5967834;23;20023;-82
2023/07/18 06:05:19;;;;;;;5.90;3.42;;;;;;;20.86;51.60;100401.63;6001638;23;20022;-82
2023/07/18 06:07:51;;;;;;;7.72;3.42;;;;;;;20.91;51.85;100401.91;5977155;23;20090;-82
2023/07/18 06:10:21;;;;;;;6.55;3.13;;;;;;;20.95;51.50;100401.34;6060783;23;20022;-82
2023/07/18 06:12:51;;;;;;;10.07;3.50;;;;;;;20.95;51.06;100403.22;6025725;23;20033;-82
2023/07/18 06:15:18;;;;;;;6.60;2.92;;;;;;;20.98;50.74;100392.03;6028449;23;20535;-82
2023/07/18 06:17:49;;;;;;;10.50;3.47;;;;;;;21.01;51.02;100392.50;6026692;23;20402;-82
2023/07/18 06:20:20;;;;;;;9.95;4.15;;;;;;;21.05;50.90;100392.94;6032082;23;20100;-82
2023/07/18 06:22:54;;;;;;;9.73;3.58;;;;;;;21.05;50.76;100398.34;6008573;23;20112;-82
2023/07/18 06:25:24;;;;;;;4.93;3.25;;;;;;;21.05;50.56;100392.94;5994071;23;20022;-82
2023/07/18 06:27:54;;;;;;;6.57;3.05;;;;;;;21.09;50.66;100396.94;5963125;23;20368;-83
2023/07/18 06:30:31;;;;;;;5.25;2.80;;;;;;;21.11;50.30;100399.44;5922378;23;20097;-82
2023/07/18 06:33:11;;;;;;;12.90;3.28;;;;;;;21.06;50.35;100380.28;5844046;23;20021;-82
2023/07/18 06:36:49;;;;;;;5.28;3.00;;;;;;;21.07;50.15;100385.50;6012836;23;20029;-82
2023/07/18 06:44:12;;;;;;;5.15;3.03;;;;;;;21.07;50.12;100384.66;5886862;23;20103;-83
2023/07/18 06:47:26;;;;;;;4.57;2.72;;;;;;;21.11;50.47;100380.53;5959687;23;20026;-82
2023/07/18 06:54:42;;;;;;;5.43;3.15;;;;;;;21.28;50.41;100379.28;5882120;23;20047;-82
2023/07/18 06:57:43;;;;;;;13.48;3.78;;;;;;;21.31;50.03;100370.78;5802564;23;21486;-82
2023/07/18 07:01:12;;;;;;;6.45;3.10;;;;;;;21.29;49.21;100363.91;5773457;24;20033;-82
2023/07/18 07:04:22;;;;;;;8.07;4.03;;;;;;;21.36;49.39;100354.81;5784871;23;20127;-83
2023/07/18 07:15:30;;;;;;;6.00;2.78;;;;;;;;;;5973114;23;20029;-82
2023/07/18 07:22:30;;;;;;;5.45;2.60;;;;;;;21.62;48.93;100343.44;5795468;23;20071;-82
2023/07/18 07:25:34;;;;;;;6.05;2.33;;;;;;;21.60;47.03;100344.66;5943111;23;20455;-82
2023/07/18 07:28:50;;;;;;;7.43;2.83;;;;;;;21.59;46.57;100337.59;5845137;23;20029;-82
2023/07/18 07:36:24;;;;;;;6.25;2.35;;;;;;;21.76;46.37;100325.47;5808555;23;20028;-83
2023/07/18 07:39:58;;;;;;;;;;;;;;;;;;;;;
2023/07/18 07:42:55;;;;;;;7.93;2.33;;;;;;;21.88;46.05;100321.19;5871378;23;20363;-83
2023/07/18 07:46:24;;;;;;;7.80;2.70;;;;;;;21.87;45.27;100316.81;5814731;23;20028;-82
2023/07/18 07:52:33;;;;;;;6.40;2.50;;;;;;;21.91;44.69;100314.56;5894670;23;20022;-83
2023/07/18 07:59:22;;;;;;;5.07;2.70;;;;;;;21.97;45.15;100305.63;5998278;23;20031;-82
2023/07/18 08:03:10;;;;;;;4.40;2.28;;;;;;;22.01;44.88;100301.53;5936401;23;21104;-82
2023/07/18 08:23:14;;;;;;;5.68;2.42;;;;;;;22.19;45.24;100263.16;6030166;23;20021;-83
2023/07/18 08:29:11;;;;;;;5.50;2.40;;;;;;;22.31;44.63;100268.81;6083452;23;20462;-83
2023/07/18 09:01:45;;;;;;;6.82;2.60;;;;;;;22.58;44.01;100225.59;6119792;23;20056;-79
2023/07/18 09:04:12;;;;;;;5.97;2.40;;;;;;;22.64;43.91;100217.47;6115425;23;20080;-79
2023/07/18 09:06:49;;;;;;;5.85;2.75;;;;;;;22.64;43.55;100213.94;6115547;23;20017;-79
2023/07/18 09:09:23;;;;;;;5.68;2.67;;;;;;;22.71;43.74;100209.38;6140662;23;20029;-78
2023/07/18 09:12:01;;;;;;;6.03;2.20;;;;;;;22.69;42.28;100206.88;6140632;23;20509;-77
2023/07/18 09:14:33;;;;;;;3.22;1.90;;;;;;;22.75;43.14;100206.06;6043039;23;20073;-78
2023/07/18 09:17:03;;;;;;;4.45;2.42;;;;;;;22.74;43.59;100201.69;6090371;23;20021;-78
2023/07/18 09:19:40;;;;;;;3.80;2.30;;;;;;;22.73;42.94;100197.31;6115554;23;20072;-77
2023/07/18 09:22:09;;;;;;;8.93;2.50;;;;;;;22.78;43.35;100195.88;6115248;23;20096;-79
2023/07/18 09:24:37;;;;;;;2.90;2.10;;;;;;;22.82;43.19;100191.69;6140698;23;20072;-79
2023/07/18 09:27:05;;;;;;;4.57;2.20;;;;;;;22.85;43.71;100183.19;6115148;23;20520;-78
2023/07/18 09:29:32;;;;;;;7.20;2.65;;;;;;;22.90;43.94;100175.25;6113884;23;20025;-78
2023/07/18 09:31:59;;;;;;;4.68;2.40;;;;;;;22.94;43.79;100188.16;6142307;23;20406;-77
2023/07/18 09:34:27;;;;;;;4.60;1.98;;;;;;;22.99;43.82;100184.03;6112390;23;20354;-78
2023/07/18 09:37:03;;;;;;;4.78;2.13;;;;;;;23.02;43.86;100178.19;6090097;23;20039;-79
2023/07/18 09:39:29;;;;;;;5.13;2.40;;;;;;;23.06;44.00;100174.84;6115405;23;20029;-78
2023/07/18 09:41:56;;;;;;;6.82;2.45;;;;;;;23.10;43.90;100177.97;6114640;23;20104;-77
2023/07/18 09:44:25;;;;;;;4.63;2.17;;;;;;;23.12;43.60;100179.44;6139924;23;20025;-78
2023/07/18 09:47:00;;;;;;;5.72;2.67;;;;;;;23.16;43.49;100171.72;6115683;23;20045;-78
2023/07/18 09:49:28;;;;;;;3.20;2.00;;;;;;;23.16;43.09;100174.44;6115401;23;20319;-78
2023/07/18 09:52:03;;;;;;;8.60;2.00;;;;;;;23.14;43.06;100182.75;6115584;23;20025;-77
2023/07/18 09:54:32;;;;;;;3.17;2.17;;;;;;;23.17;43.19;100176.94;6113433;23;20049;-77
2023/07/18 09:57:09;;;;;;;4.47;2.45;;;;;;;23.17;43.05;100185.06;6113047;23;20076;-78
2023/07/18 09:59:39;;;;;;;5.32;2.90;;;;;;;23.21;43.29;100198.19;6087036;23;20068;-77
2023/07/18 10:02:08;;;;;;;4.40;2.33;;;;;;;23.24;43.31;100197.78;6110644;23;20034;-78
2023/07/18 10:04:36;;;;;;;3.08;2.20;;;;;;;23.26;43.16;100210.06;6112029;23;20029;-78
2023/07/18 10:07:04;;;;;;;4.75;2.20;;;;;;;23.27;43.18;100200.88;6111790;23;20569;-77
2023/07/18 10:09:32;;;;;;;6.30;2.47;;;;;;;23.32;43.32;100195.66;6139591;23;20029;-78
2023/07/18 10:11:58;;;;;;;7.30;2.20;;;;;;;23.35;43.21;100194.41;6090783;23;20025;-78
2023/07/18 10:14:58;;;;;;;4.22;2.20;;;;;;;23.39;43.27;100201.09;6139172;23;20673;-77
2023/07/18 10:17:31;;;;;;;4.35;2.38;;;;;;;23.42;43.02;100213.38;6059521;23;20018;-78
2023/07/18 10:19:58;;;;;;;4.45;1.90;;;;;;;23.43;42.92;100199.59;6141077;23;20021;-78
2023/07/18 10:22:28;;;;;;;8.00;1.90;;;;;;;23.47;42.10;100190.03;6088217;23;20021;-78
2023/07/18 10:25:00;;;;;;;8.77;2.17;;;;;;;23.48;42.04;100185.44;6139872;23;20033;-78
2023/07/18 10:27:36;;;;;;;5.53;1.98;;;;;;;23.49;41.89;100187.94;6114769;23;20021;-78
2023/07/18 10:30:07;;;;;;;6.85;2.55;;;;;;;23.55;42.60;100159.97;6115754;23;20029;-78
2023/07/18 10:32:36;;;;;;;5.85;2.20;;;;;;;23.61;42.84;100150.19;6138217;23;20101;-77
2023/07/18 10:35:08;;;;;;;4.93;2.08;;;;;;;23.64;42.32;100174.16;6089749;23;20029;-77
2023/07/18 10:37:36;;;;;;;4.10;2.40;;;;;;;23.70;42.51;100169.75;6113938;23;22786;-79
2023/07/18 10:40:05;;;;;;;2.60;1.88;;;;;;;23.72;41.97;100146.81;6114051;23;20025;-79
2023/07/18 10:42:34;;;;;;;4.20;1.70;;;;;;;23.78;42.15;100145.13;6114170;23;20025;-79
2023/07/18 10:45:05;;;;;;;3.42;1.98;;;;;;;23.82;42.34;100111.13;6115018;23;20337;-79
2023/07/18 10:47:37;;;;;;;3.70;2.20;;;;;;;23.84;42.48;100065.63;6090333;23;20056;-78
2023/07/18 10:50:06;;;;;;;4.72;2.03;;;;;;;23.88;41.86;100028.88;6115086;23;20031;-78
2023/07/18 10:52:34;;;;;;;4.20;1.88;;;;;;;23.92;41.89;100015.72;6091624;23;20405;-77
2023/07/18 10:55:04;;;;;;;3.60;1.90;;;;;;;23.91;41.99;100003.22;6090807;23;20097;-78
2023/07/18 10:57:32;;;;;;;4.70;2.20;;;;;;;23.95;41.80;99999.03;6115655;23;20096;-78
2023/07/18 11:00:01;;;;;;;3.33;1.92;;;;;;;23.95;41.93;100009.88;6091767;23;20084;-78
2023/07/18 11:02:35;;;;;;;3.30;2.00;;;;;;;23.95;42.17;100021.53;6092043;23;20453;-78
2023/07/18 11:05:10;;;;;;;3.75;2.28;;;;;;;23.95;41.73;100032.38;6114509;23;20093;-78
2023/07/18 11:07:42;;;;;;;6.35;1.98;;;;;;;24.00;42.02;100046.13;6116660;23;20713;-78
2023/07/18 11:10:10;;;;;;;7.13;2.40;;;;;;;24.04;41.94;100054.66;6115887;23;20037;-77
2023/07/18 11:12:37;;;;;;;4.40;2.10;;;;;;;24.07;42.23;100067.81;6116156;23;20563;-77
2023/07/18 11:15:05;;;;;;;6.07;2.35;;;;;;;24.10;41.96;100072.78;6115567;23;20120;-77
2023/07/18 11:17:32;;;;;;;3.15;2.03;;;;;;;24.10;41.88;100075.50;6142641;23;20013;-78
2023/07/18 11:19:59;;;;;;;6.18;2.17;;;;;;;24.11;41.91;100095.31;6116926;23;20030;-78
2023/07/18 11:22:26;;;;;;;8.35;2.65;;;;;;;24.08;41.04;100099.28;6090927;23;20079;-78
2023/07/18 11:24:55;;;;;;;4.63;2.45;;;;;;;24.05;41.35;100097.03;6140807;23;20347;-81
2023/07/18 11:27:23;;;;;;;4.53;2.40;;;;;;;24.05;42.05;100097.03;6142241;23;20017;-77
2023/07/18 11:30:01;;;;;;;6.10;2.40;;;;;;;24.02;41.48;100092.03;6142149;23;20041;-78
2023/07/18 11:32:29;;;;;;;3.05;2.30;;;;;;;24.07;41.45;100094.06;6115122;23;20033;-77
2023/07/18 11:35:00;;;;;;;5.45;2.08;;;;;;;24.13;41.63;100106.78;6140557;23;20399;-78
2023/07/18 11:37:27;;;;;;;4.18;2.30;;;;;;;24.12;41.37;100115.94;6115480;23;20129;-79
2023/07/18 11:40:00;;;;;;;5.00;2.55;;;;;;;24.12;41.06;100111.38;6115744;23;20025;-79
2023/07/18 11:42:47;;;;;;;6.63;2.30;;;;;;;24.08;41.05;100109.31;6068933;23;20021;-78
2023/07/18 11:45:21;;;;;;;5.97;2.42;;;;;;;24.15;40.90;100116.38;6066773;23;20029;-78
2023/07/18 11:47:50;;;;;;;6.22;2.78;;;;;;;24.20;40.87;100113.00;6114873;23;20033;-78
2023/07/18 11:50:18;;;;;;;6.65;3.05;;;;;;;24.25;41.47;100099.63;6093120;23;20051;-78
2023/07/18 11:52:52;;;;;;;11.45;2.50;;;;;;;24.27;41.55;100086.63;6091630;23;20028;-78
2023/07/18 11:55:21;;;;;;;4.50;2.10;;;;;;;24.35;41.72;100075.53;6116029;23;20080;-78
2023/07/18 11:57:51;;;;;;;6.18;2.70;;;;;;;24.35;41.66;100063.81;6091454;23;20025;-78
2023/07/18 12:00:18;;;;;;;5.80;2.65;;;;;;;24.37;41.76;100054.41;6116207;23;20400;-78
2023/07/18 12:02:45;;;;;;;6.25;2.63;;;;;;;24.47;41.98;100049.38;6091755;23;20025;-78
2023/07/18 12:05:16;;;;;;;4.70;2.30;;;;;;;24.51;42.08;100040.78;6140599;23;20041;-79
2023/07/18 12:07:47;;;;;;;5.78;2.72;;;;;;;24.56;41.42;100030.91;6092014;23;20033;-79
2023/07/18 12:10:15;;;;;;;4.47;2.22;;;;;;;24.55;41.96;100012.13;6092576;23;20025;-78
2023/07/18 12:12:43;;;;;;;5.25;2.58;;;;;;;24.57;42.19;100015.44;6091409;23;20464;-79
2023/07/18 12:15:10;;;;;;;3.10;2.30;;;;;;;24.60;42.06;99999.56;6114890;23;20068;-78
2023/07/18 12:17:38;;;;;;;5.68;2.80;;;;;;;24.64;41.92;99992.59;6116446;23;20076;-78
2023/07/18 12:20:06;;;;;;;6.05;3.22;;;;;;;24.69;41.92;99981.06;6142043;23;20033;-78
2023/07/18 12:22:33;;;;;;;7.32;2.75;;;;;;;24.65;41.69;99972.56;6089811;23;20013;-78
2023/07/18 12:25:02;;;;;;;5.85;3.00;;;;;;;24.67;41.83;99961.47;6115796;23;20030;-79
2023/07/18 12:27:29;;;;;;;5.50;2.38;;;;;;;24.67;41.80;99954.13;6142128;23;20029;-78
2023/07/18 12:29:56;;;;;;;6.03;2.60;;;;;;;24.70;41.86;99952.84;6092930;23;25241;-78
2023/07/18 12:32:23;;;;;;;5.03;2.65;;;;;;;24.73;41.65;99960.56;6115189;23;20108;-78
2023/07/18 12:34:56;;;;;;;6.50;2.88;;;;;;;24.73;41.42;99946.16;6093582;23;20779;-85
2023/07/18 12:37:23;;;;;;;8.35;2.70;;;;;;;24.73;41.71;99929.84;6120131;23;20021;-85
2023/07/18 12:39:50;;;;;;;7.25;3.20;;;;;;;24.71;42.14;99929.28;6093691;23;20025;-84
2023/07/18 12:42:17;;;;;;;4.95;2.90;;;;;;;24.73;41.73;99938.00;6071784;23;20080;-85
2023/07/18 12:44:46;;;;;;;7.50;2.80;;;;;;;24.72;41.98;99931.75;6094359;23;20033;-85
2023/07/18 12:47:13;;;;;;;5.15;2.75;;;;;;;24.74;41.98;99931.53;6070808;23;20092;-85
2023/07/18 12:49:42;;;;;;;6.00;2.80;;;;;;;24.79;41.95;99910.78;6094169;23;20460;-85
2023/07/18 12:52:12;;;;;;;8.35;3.45;;;;;;;24.83;42.19;99922.84;6071903;23;20021;-85
2023/07/18 12:54:39;;;;;;;7.60;3.40;;;;;;;24.83;42.36;99922.00;6145511;23;20076;-86
2023/07/18 12:57:06;;;;;;;7.88;3.40;;;;;;;24.85;42.19;99919.91;6093779;23;20073;-85
2023/07/18 12:59:33;;;;;;;8.82;3.13;;;;;;;24.83;42.17;99912.00;6094900;23;20722;-85
2023/07/18 13:02:00;;;;;;;3.90;2.78;;;;;;;24.85;42.28;99919.91;6119522;23;20013;-84
2023/07/18 13:04:27;;;;;;;4.43;3.08;;;;;;;24.85;41.73;99912.56;6117246;23;20805;-83
2023/07/18 13:06:54;;;;;;;7.90;3.00;;;;;;;24.85;42.09;99909.84;6118437;23;20025;-85
2023/07/18 13:09:21;;;;;;;4.78;3.20;;;;;;;24.87;41.37;99905.03;6071627;23;20040;-85
2023/07/18 13:11:52;;;;;;;9.00;3.50;;;;;;;24.89;41.83;99894.78;6069867;23;20026;-83
2023/07/18 13:14:20;;;;;;;6.65;2.60;;;;;;;24.90;41.51;99884.72;6093257;23;20080;-85
2023/07/18 13:16:47;;;;;;;6.78;3.40;;;;;;;24.89;41.71;99873.03;6095274;23;20385;-85
2023/07/18 13:19:14;;;;;;;5.78;3.25;;;;;;;24.92;41.59;99869.88;6069844;23;20048;-87
2023/07/18 13:21:42;;;;;;;4.95;3.00;;;;;;;24.95;41.37;99871.28;6095567;23;20033;-85